createdAt,value
2023-07-03T00:02:24.884Z,21.73
2023-07-03T00:06:46.868Z,22.55
2023-07-03T00:11:08.825Z,23.63
2023-07-03T00:15:31.109Z,20.95
2023-07-03T00:19:53.161Z,20.48
2023-07-03T00:24:15.300Z,23.25
2023-07-03T00:28:37.148Z,24.30
2023-07-03T00:33:00.196Z,27.73
2023-07-03T00:37:22.596Z,22.35
2023-07-03T00:41:44.973Z,22.20
2023-07-03T00:46:09.746Z,24.90
2023-07-03T00:50:33.406Z,21.75
2023-07-03T00:54:55.980Z,20.75
2023-07-03T00:59:18.794Z,22.48
2023-07-03T01:03:49.076Z,20.83
2023-07-03T01:08:13.114Z,21.33
2023-07-03T01:12:39.586Z,22.10
2023-07-03T01:17:02.504Z,23.17
2023-07-03T01:21:33.868Z,24.50
2023-07-03T01:25:57.888Z,23.55
2023-07-03T01:30:22.133Z,19.23
2023-07-03T01:34:46.954Z,21.77
2023-07-03T01:39:09.510Z,22.10
2023-07-03T01:43:31.929Z,23.17
2023-07-03T01:47:53.907Z,23.55
2023-07-03T01:52:33.151Z,20.10
2023-07-03T01:56:58.574Z,21.17
2023-07-03T02:01:43.062Z,24.50
2023-07-03T02:06:17.039Z,22.98
2023-07-03T02:10:39.808Z,23.88
2023-07-03T02:15:04.679Z,22.05
2023-07-03T02:19:29.604Z,22.52
2023-07-03T02:23:51.497Z,23.67
2023-07-03T02:28:14.175Z,21.92
2023-07-03T02:32:38.172Z,20.23
2023-07-03T02:37:00.516Z,22.58
2023-07-03T02:41:24.205Z,21.83
2023-07-03T02:45:46.301Z,23.80
2023-07-03T02:50:09.322Z,29.67
2023-07-03T02:54:33.990Z,21.98
2023-07-03T02:58:57.090Z,25.98
2023-07-03T03:03:24.881Z,26.50
2023-07-03T03:07:46.996Z,23.33
2023-07-03T03:12:10.771Z,23.60
2023-07-03T03:16:32.565Z,21.73
2023-07-03T03:20:54.712Z,22.98
2023-07-03T03:25:16.891Z,25.55
2023-07-03T03:29:42.148Z,23.50
2023-07-03T03:34:04.656Z,23.50
2023-07-03T03:38:26.730Z,26.40
2023-07-03T03:42:48.898Z,25.98
2023-07-03T03:47:12.206Z,25.77
2023-07-03T03:51:34.510Z,26.08
2023-07-03T03:55:57.432Z,26.73
2023-07-03T04:00:21.438Z,29.02
2023-07-03T04:04:43.729Z,24.80
2023-07-03T04:09:06.509Z,34.65
2023-07-03T04:13:28.424Z,28.80
2023-07-03T04:17:50.698Z,27.73
2023-07-03T04:22:12.450Z,29.58
2023-07-03T04:26:34.545Z,27.63
2023-07-03T04:30:56.560Z,25.20
2023-07-03T04:35:18.797Z,29.02
2023-07-03T04:39:40.501Z,31.15
2023-07-03T04:44:02.417Z,33.47
2023-07-03T04:48:24.273Z,30.45
2023-07-03T04:52:47.694Z,26.95
2023-07-03T04:57:09.511Z,27.15
2023-07-03T05:01:31.769Z,25.60
2023-07-03T05:05:53.723Z,30.90
2023-07-03T05:10:18.571Z,29.55
2023-07-03T05:14:40.544Z,33.20
2023-07-03T05:19:02.477Z,25.58
2023-07-03T05:23:24.463Z,22.92
2023-07-03T05:27:48.119Z,25.52
2023-07-03T05:32:10.179Z,27.35
2023-07-03T05:36:32.333Z,25.33
2023-07-03T05:40:55.829Z,25.30
2023-07-03T05:45:17.634Z,25.83
2023-07-03T05:49:40.029Z,29.80
2023-07-03T05:54:02.157Z,21.50
2023-07-03T05:58:25.104Z,19.10
2023-07-03T06:02:49.157Z,19.48
2023-07-03T06:07:11.721Z,23.05
2023-07-03T06:11:33.206Z,20.65
2023-07-03T06:15:55.447Z,21.48
2023-07-03T06:20:17.429Z,24.77
2023-07-03T06:24:39.469Z,22.42
2023-07-03T06:29:05.097Z,22.67
2023-07-03T06:33:26.730Z,23.35
2023-07-03T06:37:48.838Z,23.02
2023-07-03T06:42:11.334Z,24.13
2023-07-03T06:46:37.920Z,23.58
2023-07-03T06:51:08.824Z,22.30
2023-07-03T06:55:30.750Z,24.17
2023-07-03T06:59:52.891Z,21.65
2023-07-03T07:04:16.309Z,19.08
2023-07-03T07:08:38.341Z,21.08
2023-07-03T07:13:00.350Z,24.05
2023-07-03T07:17:23.769Z,21.13
2023-07-03T07:21:47.756Z,19.73
2023-07-03T07:26:09.953Z,22.02
2023-07-03T07:30:31.888Z,18.55
2023-07-03T07:34:53.612Z,16.35
2023-07-03T07:39:15.872Z,17.88
2023-07-03T07:43:38.013Z,17.02
2023-07-03T07:48:00.875Z,15.90
2023-07-03T07:52:25.112Z,17.33
2023-07-03T07:56:46.770Z,18.88
2023-07-03T08:01:11.928Z,21.80
2023-07-03T08:05:34.023Z,16.55
2023-07-03T08:09:55.850Z,17.63
2023-07-03T08:14:17.782Z,17.40
2023-07-03T08:18:39.803Z,17.15
2023-07-03T08:23:01.722Z,17.77
2023-07-03T08:27:23.855Z,17.67
2023-07-03T08:31:46.101Z,17.95
2023-07-03T08:40:33.038Z,14.60
2023-07-03T08:44:58.024Z,19.95
2023-07-03T08:49:24.465Z,19.85
2023-07-03T08:53:53.639Z,15.85
2023-07-03T08:58:15.579Z,16.73
2023-07-03T09:02:41.002Z,13.55
2023-07-03T09:07:19.962Z,21.48
2023-07-03T09:11:49.721Z,18.85
2023-07-03T09:16:23.573Z,17.08
2023-07-03T09:20:45.748Z,17.45
2023-07-03T09:25:19.112Z,15.98
2023-07-03T09:29:42.485Z,20.55
2023-07-03T09:34:04.681Z,16.73
2023-07-03T09:38:27.642Z,18.25
2023-07-03T09:42:50.132Z,16.58
2023-07-03T09:47:26.028Z,19.23
2023-07-03T09:51:53.047Z,19.73
2023-07-03T09:56:21.982Z,14.75
2023-07-03T10:00:50.582Z,15.30
2023-07-03T10:14:23.046Z,14.38
2023-07-03T10:18:49.892Z,16.10
2023-07-03T10:23:19.295Z,15.00
2023-07-03T10:27:42.232Z,19.52
2023-07-03T10:32:14.568Z,14.55
2023-07-03T10:36:37.496Z,18.17
2023-07-03T10:41:08.401Z,19.00
2023-07-03T10:45:36.431Z,15.27
2023-07-03T10:49:58.449Z,18.42
2023-07-03T10:54:33.241Z,17.88
2023-07-03T10:59:16.992Z,16.95
2023-07-03T11:04:05.946Z,18.08
2023-07-03T11:08:51.042Z,17.55
2023-07-03T11:13:42.808Z,19.65
2023-07-03T11:23:12.604Z,18.98
2023-07-03T11:32:10.921Z,20.45
2023-07-03T11:45:59.360Z,22.90
2023-07-03T11:50:35.567Z,20.17
2023-07-03T11:55:35.796Z,17.75
2023-07-03T12:00:20.309Z,16.02
2023-07-03T12:04:49.815Z,19.23
2023-07-03T12:09:32.802Z,15.50
2023-07-03T12:13:56.337Z,17.08
2023-07-03T12:18:18.462Z,19.73
2023-07-03T12:22:50.276Z,17.30
2023-07-03T12:27:12.463Z,17.58
2023-07-03T12:31:34.487Z,17.35
2023-07-03T12:35:56.975Z,26.45
2023-07-03T12:40:21.340Z,17.25
2023-07-03T12:44:43.333Z,17.30
2023-07-03T12:49:18.602Z,16.55
2023-07-03T12:53:43.619Z,18.63
2023-07-03T12:58:07.045Z,18.38
2023-07-03T13:02:31.156Z,24.27
2023-07-03T13:06:53.739Z,18.75
2023-07-03T13:11:15.718Z,16.50
2023-07-03T13:15:42.023Z,24.38
2023-07-03T13:20:21.728Z,17.40
2023-07-03T13:24:50.325Z,17.27
2023-07-03T13:29:12.417Z,15.07
2023-07-03T13:33:37.728Z,16.20
2023-07-03T13:38:20.514Z,15.93
2023-07-03T13:42:42.706Z,16.10
2023-07-03T13:47:05.067Z,15.75
2023-07-03T13:51:26.770Z,14.38
2023-07-03T13:55:50.054Z,11.68
2023-07-03T14:00:12.863Z,18.20
2023-07-03T14:04:34.740Z,17.23
2023-07-03T14:08:58.340Z,15.38
2023-07-03T14:13:20.240Z,17.65
2023-07-03T14:17:42.177Z,11.77
2023-07-03T14:22:04.088Z,13.32
2023-07-03T14:26:26.175Z,14.05
2023-07-03T14:30:48.784Z,14.73
2023-07-03T14:35:11.491Z,15.98
2023-07-03T14:39:33.419Z,13.18
2023-07-03T14:43:55.497Z,13.40
2023-07-03T14:48:17.358Z,9.15
2023-07-03T14:52:45.341Z,11.38
2023-07-03T14:57:07.494Z,7.32
2023-07-03T15:01:30.301Z,13.50
2023-07-03T15:05:52.923Z,11.20
2023-07-03T15:10:16.549Z,13.48
2023-07-03T15:14:40.231Z,9.18
2023-07-03T15:19:06.885Z,11.43
2023-07-03T15:23:28.895Z,14.65
2023-07-03T15:27:50.784Z,16.63
2023-07-03T15:32:12.765Z,20.27
2023-07-03T15:36:35.098Z,17.10
2023-07-03T15:40:59.474Z,14.80
2023-07-03T15:45:23.477Z,10.43
2023-07-03T15:49:47.371Z,11.23
2023-07-03T15:54:09.436Z,15.23
2023-07-03T15:58:34.663Z,14.10
2023-07-03T16:02:56.283Z,12.75
2023-07-03T16:07:18.334Z,11.25
2023-07-03T16:11:40.291Z,11.27
2023-07-03T16:16:07.057Z,11.13
2023-07-03T16:20:31.450Z,12.25
2023-07-03T16:24:53.504Z,9.38
2023-07-03T16:29:17.416Z,10.52
2023-07-03T16:33:45.444Z,15.82
2023-07-03T16:38:07.363Z,15.48
2023-07-03T16:42:29.278Z,13.55
2023-07-03T16:46:51.404Z,17.85
2023-07-03T16:51:13.785Z,12.13
2023-07-03T16:55:35.550Z,10.40
2023-07-03T16:59:59.488Z,11.40
2023-07-03T17:04:21.681Z,11.00
2023-07-03T17:08:43.431Z,11.23
2023-07-03T17:13:07.235Z,14.77
2023-07-03T17:17:29.149Z,17.33
2023-07-03T17:21:51.139Z,11.38
2023-07-03T17:26:13.859Z,13.60
2023-07-03T17:30:36.571Z,10.50
2023-07-03T17:34:58.647Z,16.88
2023-07-03T17:39:20.588Z,13.77
2023-07-03T17:43:42.551Z,8.50
2023-07-03T17:48:05.186Z,16.55
2023-07-03T17:52:27.472Z,9.93
2023-07-03T17:56:49.419Z,14.65
2023-07-03T18:01:12.888Z,10.50
2023-07-03T18:05:36.287Z,16.40
2023-07-03T18:09:58.248Z,9.32
2023-07-03T18:14:20.331Z,18.52
2023-07-03T18:18:42.070Z,13.25
2023-07-03T18:23:04.240Z,14.55
2023-07-03T18:27:33.905Z,17.93
2023-07-03T18:31:55.850Z,12.07
2023-07-03T18:36:17.623Z,12.30
2023-07-03T18:40:39.765Z,14.27
2023-07-03T18:45:01.900Z,12.63
2023-07-03T18:49:23.864Z,10.77
2023-07-03T18:53:46.324Z,14.75
2023-07-03T18:58:08.603Z,14.40
2023-07-03T19:02:31.036Z,11.35
2023-07-03T19:06:54.114Z,15.77
2023-07-03T19:11:16.339Z,13.15
2023-07-03T19:15:38.224Z,11.55
2023-07-03T19:20:00.689Z,12.38
2023-07-03T19:24:22.713Z,13.15
2023-07-03T19:28:55.356Z,22.48
2023-07-03T19:33:18.371Z,12.68
2023-07-03T19:37:41.829Z,12.27
2023-07-03T19:42:07.272Z,12.82
2023-07-03T19:46:29.611Z,11.02
2023-07-03T19:50:51.865Z,12.90
2023-07-03T19:55:13.794Z,17.38
2023-07-03T19:59:36.360Z,14.23
2023-07-03T20:04:00.990Z,13.73
2023-07-03T20:08:24.978Z,12.15
2023-07-03T20:12:51.963Z,12.45
2023-07-03T20:17:13.793Z,12.52
2023-07-03T20:21:35.816Z,9.93
2023-07-03T20:25:59.049Z,12.35
2023-07-03T20:30:21.112Z,13.73
2023-07-03T20:34:43.261Z,9.43
2023-07-03T20:39:06.084Z,11.30
2023-07-03T20:43:28.979Z,11.68
2023-07-03T20:47:51.829Z,11.35
2023-07-03T20:52:15.717Z,14.55
2023-07-03T20:56:40.151Z,14.43
2023-07-03T21:01:26.868Z,11.68
2023-07-03T21:05:48.663Z,15.65
2023-07-03T21:10:11.607Z,13.57
2023-07-03T21:14:33.460Z,12.60
2023-07-03T21:18:55.610Z,15.00
2023-07-03T21:23:17.517Z,16.23
2023-07-03T21:27:39.433Z,10.68
2023-07-03T21:32:01.519Z,11.57
2023-07-03T21:36:26.258Z,17.75
2023-07-03T21:40:55.975Z,12.52
2023-07-03T21:45:18.169Z,12.80
2023-07-03T21:49:40.169Z,14.15
2023-07-03T21:54:02.053Z,20.73
2023-07-03T21:58:23.912Z,10.80
2023-07-03T22:02:45.837Z,11.38
2023-07-03T22:07:07.817Z,12.38
2023-07-03T22:11:30.572Z,11.73
2023-07-03T22:15:52.546Z,12.38
2023-07-03T22:20:14.705Z,11.38
2023-07-03T22:24:36.707Z,11.80
2023-07-03T22:28:58.901Z,15.38
2023-07-03T22:33:21.107Z,15.07
2023-07-03T22:37:43.108Z,9.75
2023-07-03T22:42:05.714Z,9.35
2023-07-03T22:46:29.114Z,10.45
2023-07-03T22:50:55.188Z,12.80
2023-07-03T22:55:18.763Z,11.27
2023-07-03T22:59:40.956Z,11.88
2023-07-03T23:04:11.056Z,15.93
2023-07-03T23:08:38.474Z,12.68
2023-07-03T23:13:00.101Z,11.73
2023-07-03T23:17:30.955Z,14.63
2023-07-03T23:21:52.793Z,11.50
2023-07-03T23:26:18.749Z,8.25
2023-07-03T23:30:41.095Z,13.40
2023-07-03T23:35:02.700Z,8.80
2023-07-03T23:39:24.654Z,14.82
2023-07-03T23:43:47.624Z,10.32
2023-07-03T23:48:12.093Z,10.02
2023-07-03T23:52:33.820Z,11.55
2023-07-03T23:56:55.676Z,7.65
